sensor_id;sensor_type;location;lat;lon;timestamp;pressure;altitude;pressure_sealevel;temperature;humidity
55470;BME280;41334;47.872;16.384;2023-05-07T00:00:33;99050.03;;;12.11;87.58
55470;BME280;41334;47.872;16.384;2023-05-07T00:05:35;99047.41;;;12.06;88.15
55470;BME280;41334;47.872;16.384;2023-05-07T00:10:37;99046.28;;;12.07;87.61
55470;BME280;41334;47.872;16.384;2023-05-07T00:15:39;99057.16;;;12.03;87.39
55470;BME280;41334;47.872;16.384;2023-05-07T00:20:42;99047.88;;;11.99;87.29
55470;BME280;41334;47.872;16.384;2023-05-07T00:25:43;99042.66;;;11.98;87.69
55470;BME280;41334;47.872;16.384;2023-05-07T00:30:45;99046.38;;;11.93;87.97
55470;BME280;41334;47.872;16.384;2023-05-07T00:35:47;99035.00;;;11.95;87.82
55470;BME280;41334;47.872;16.384;2023-05-07T00:40:49;99029.00;;;12.01;88.05
55470;BME280;41334;47.872;16.384;2023-05-07T00:45:53;99025.91;;;12.03;87.36
55470;BME280;41334;47.872;16.384;2023-05-07T00:50:56;99031.13;;;12.04;86.15
55470;BME280;41334;47.872;16.384;2023-05-07T00:55:58;99031.28;;;12.08;86.03
55470;BME280;41334;47.872;16.384;2023-05-07T01:01:02;99032.09;;;12.09;86.86
55470;BME280;41334;47.872;16.384;2023-05-07T01:06:06;99022.84;;;12.04;86.67
55470;BME280;41334;47.872;16.384;2023-05-07T01:11:10;99019.06;;;12.00;86.84
55470;BME280;41334;47.872;16.384;2023-05-07T01:16:13;99016.09;;;11.88;86.34
55470;BME280;41334;47.872;16.384;2023-05-07T01:21:17;99025.34;;;11.84;86.97
55470;BME280;41334;47.872;16.384;2023-05-07T01:26:20;99020.16;;;11.91;87.54
55470;BME280;41334;47.872;16.384;2023-05-07T01:31:23;99036.28;;;11.89;88.64
55470;BME280;41334;47.872;16.384;2023-05-07T01:36:27;99040.91;;;11.79;88.98
55470;BME280;41334;47.872;16.384;2023-05-07T01:41:30;99040.03;;;11.70;88.22
55470;BME280;41334;47.872;16.384;2023-05-07T01:46:33;99048.28;;;11.62;88.01
55470;BME280;41334;47.872;16.384;2023-05-07T01:51:36;99054.69;;;11.48;88.15
55470;BME280;41334;47.872;16.384;2023-05-07T01:56:37;99048.97;;;11.45;88.26
55470;BME280;41334;47.872;16.384;2023-05-07T02:01:39;99042.44;;;11.41;87.70
55470;BME280;41334;47.872;16.384;2023-05-07T02:06:42;99047.28;;;11.35;87.96
55470;BME280;41334;47.872;16.384;2023-05-07T02:11:45;99042.50;;;11.27;88.50
55470;BME280;41334;47.872;16.384;2023-05-07T02:16:47;99047.44;;;11.16;88.66
55470;BME280;41334;47.872;16.384;2023-05-07T02:21:50;99038.25;;;11.07;88.80
55470;BME280;41334;47.872;16.384;2023-05-07T02:26:52;99038.09;;;11.04;89.30
55470;BME280;41334;47.872;16.384;2023-05-07T02:31:54;99049.88;;;10.95;90.54
55470;BME280;41334;47.872;16.384;2023-05-07T02:36:57;99040.38;;;10.88;89.29
55470;BME280;41334;47.872;16.384;2023-05-07T02:42:00;99046.28;;;10.95;88.77
55470;BME280;41334;47.872;16.384;2023-05-07T02:47:03;99048.50;;;11.07;88.95
55470;BME280;41334;47.872;16.384;2023-05-07T02:52:06;99048.22;;;11.08;88.45
55470;BME280;41334;47.872;16.384;2023-05-07T02:57:08;99063.13;;;11.07;88.18
55470;BME280;41334;47.872;16.384;2023-05-07T03:02:10;99057.94;;;11.06;88.72
55470;BME280;41334;47.872;16.384;2023-05-07T03:07:12;99059.78;;;10.96;88.76
55470;BME280;41334;47.872;16.384;2023-05-07T03:12:14;99067.59;;;10.94;88.52
55470;BME280;41334;47.872;16.384;2023-05-07T03:17:17;99075.38;;;10.92;88.96
55470;BME280;41334;47.872;16.384;2023-05-07T03:22:19;99074.03;;;10.90;88.31
55470;BME280;41334;47.872;16.384;2023-05-07T03:27:20;99069.84;;;10.92;87.94
55470;BME280;41334;47.872;16.384;2023-05-07T03:32:24;99076.38;;;10.96;88.43
55470;BME280;41334;47.872;16.384;2023-05-07T03:37:26;99079.34;;;11.00;90.25
55470;BME280;41334;47.872;16.384;2023-05-07T03:42:28;99085.25;;;11.07;90.76
55470;BME280;41334;47.872;16.384;2023-05-07T03:47:30;99085.53;;;11.19;89.89
55470;BME280;41334;47.872;16.384;2023-05-07T03:52:32;99089.13;;;11.42;89.93
55470;BME280;41334;47.872;16.384;2023-05-07T03:57:36;99090.94;;;11.83;90.02
55470;BME280;41334;47.872;16.384;2023-05-07T04:02:39;99101.44;;;12.74;86.18
55470;BME280;41334;47.872;16.384;2023-05-07T04:07:41;99103.31;;;14.56;77.09
55470;BME280;41334;47.872;16.384;2023-05-07T04:12:44;99107.19;;;15.64;71.35
55470;BME280;41334;47.872;16.384;2023-05-07T04:17:50;99119.31;;;15.18;71.19
55470;BME280;41334;47.872;16.384;2023-05-07T04:22:55;99141.75;;;14.36;73.37
55470;BME280;41334;47.872;16.384;2023-05-07T04:27:58;99141.53;;;13.95;75.33
55470;BME280;41334;47.872;16.384;2023-05-07T04:33:02;99145.00;;;13.74;76.29
55470;BME280;41334;47.872;16.384;2023-05-07T04:38:05;99161.66;;;13.74;76.55
55470;BME280;41334;47.872;16.384;2023-05-07T04:43:08;99160.81;;;13.91;75.46
55470;BME280;41334;47.872;16.384;2023-05-07T04:48:17;99169.75;;;14.05;75.88
55470;BME280;41334;47.872;16.384;2023-05-07T04:53:22;99164.41;;;13.92;77.30
55470;BME280;41334;47.872;16.384;2023-05-07T04:58:25;99172.88;;;14.12;74.10
55470;BME280;41334;47.872;16.384;2023-05-07T05:03:27;99188.09;;;14.06;75.81
55470;BME280;41334;47.872;16.384;2023-05-07T05:08:30;99186.28;;;14.02;77.73
55470;BME280;41334;47.872;16.384;2023-05-07T05:13:33;99196.88;;;14.17;76.65
55470;BME280;41334;47.872;16.384;2023-05-07T05:18:41;99194.22;;;14.55;76.01
55470;BME280;41334;47.872;16.384;2023-05-07T05:23:45;99204.56;;;14.84;73.77
55470;BME280;41334;47.872;16.384;2023-05-07T05:28:50;99202.47;;;14.81;77.08
55470;BME280;41334;47.872;16.384;2023-05-07T05:33:55;99203.19;;;14.61;77.76
55470;BME280;41334;47.872;16.384;2023-05-07T05:38:58;99211.56;;;14.44;79.01
55470;BME280;41334;47.872;16.384;2023-05-07T05:44:00;99208.59;;;14.57;77.68
55470;BME280;41334;47.872;16.384;2023-05-07T05:49:03;99212.69;;;14.42;78.58
55470;BME280;41334;47.872;16.384;2023-05-07T05:54:05;99214.75;;;14.72;75.26
55470;BME280;41334;47.872;16.384;2023-05-07T05:59:07;99215.44;;;14.42;77.95
55470;BME280;41334;47.872;16.384;2023-05-07T06:04:09;99221.88;;;14.90;76.41
55470;BME280;41334;47.872;16.384;2023-05-07T06:09:11;99221.69;;;15.04;76.01
55470;BME280;41334;47.872;16.384;2023-05-07T06:14:16;99223.94;;;15.10;74.41
55470;BME280;41334;47.872;16.384;2023-05-07T06:19:18;99215.88;;;15.17;74.77
55470;BME280;41334;47.872;16.384;2023-05-07T06:24:27;99226.66;;;15.78;71.97
55470;BME280;41334;47.872;16.384;2023-05-07T06:29:29;99236.13;;;15.56;73.37
55470;BME280;41334;47.872;16.384;2023-05-07T06:34:34;99247.63;;;15.76;71.77
55470;BME280;41334;47.872;16.384;2023-05-07T06:39:36;99240.88;;;16.39;70.09
55470;BME280;41334;47.872;16.384;2023-05-07T06:44:37;99244.19;;;16.54;69.55
55470;BME280;41334;47.872;16.384;2023-05-07T06:49:42;99254.53;;;16.98;67.24
55470;BME280;41334;47.872;16.384;2023-05-07T06:54:46;99242.84;;;16.39;69.03
55470;BME280;41334;47.872;16.384;2023-05-07T06:59:50;99248.59;;;16.55;69.79
55470;BME280;41334;47.872;16.384;2023-05-07T07:04:52;99250.06;;;16.40;68.79
55470;BME280;41334;47.872;16.384;2023-05-07T07:09:54;99247.88;;;16.45;69.17
55470;BME280;41334;47.872;16.384;2023-05-07T07:14:57;99257.47;;;17.02;67.17
55470;BME280;41334;47.872;16.384;2023-05-07T07:19:59;99254.69;;;16.69;68.01
55470;BME280;41334;47.872;16.384;2023-05-07T07:25:00;99250.75;;;17.27;65.80
55470;BME280;41334;47.872;16.384;2023-05-07T07:30:03;99245.25;;;17.92;62.98
55470;BME280;41334;47.872;16.384;2023-05-07T07:35:08;99254.47;;;18.21;62.17
55470;BME280;41334;47.872;16.384;2023-05-07T07:40:11;99258.78;;;17.29;64.21
55470;BME280;41334;47.872;16.384;2023-05-07T07:45:14;99261.00;;;17.48;63.40
55470;BME280;41334;47.872;16.384;2023-05-07T07:50:20;99275.88;;;17.15;66.05
55470;BME280;41334;47.872;16.384;2023-05-07T07:55:41;99276.84;;;16.86;67.01
55470;BME280;41334;47.872;16.384;2023-05-07T08:00:46;99276.00;;;17.43;64.65
55470;BME280;41334;47.872;16.384;2023-05-07T08:05:49;99271.00;;;17.86;62.43
55470;BME280;41334;47.872;16.384;2023-05-07T08:10:52;99292.75;;;17.92;62.84
55470;BME280;41334;47.872;16.384;2023-05-07T08:16:02;99296.22;;;18.42;62.29
55470;BME280;41334;47.872;16.384;2023-05-07T08:21:04;99287.59;;;18.47;61.20
55470;BME280;41334;47.872;16.384;2023-05-07T08:26:08;99289.25;;;18.76;60.47
55470;BME280;41334;47.872;16.384;2023-05-07T08:31:11;99295.09;;;18.58;58.92
55470;BME280;41334;47.872;16.384;2023-05-07T08:36:15;99283.75;;;18.11;59.67
55470;BME280;41334;47.872;16.384;2023-05-07T08:41:18;99282.03;;;18.35;58.98
55470;BME280;41334;47.872;16.384;2023-05-07T08:46:21;99281.97;;;18.19;59.55
55470;BME280;41334;47.872;16.384;2023-05-07T08:51:28;99276.59;;;18.26;57.48
55470;BME280;41334;47.872;16.384;2023-05-07T08:56:30;99280.00;;;18.19;59.83
55470;BME280;41334;47.872;16.384;2023-05-07T09:01:32;99288.06;;;18.09;58.77
55470;BME280;41334;47.872;16.384;2023-05-07T09:06:37;99282.59;;;18.00;59.66
55470;BME280;41334;47.872;16.384;2023-05-07T09:11:45;99295.50;;;18.04;58.82
55470;BME280;41334;47.872;16.384;2023-05-07T09:16:49;99286.28;;;18.56;56.10
55470;BME280;41334;47.872;16.384;2023-05-07T09:22:01;99293.53;;;19.17;53.33
55470;BME280;41334;47.872;16.384;2023-05-07T09:27:11;99284.69;;;19.15;54.66
55470;BME280;41334;47.872;16.384;2023-05-07T09:32:17;99288.41;;;18.47;56.12
55470;BME280;41334;47.872;16.384;2023-05-07T09:37:19;99295.16;;;18.87;53.61
55470;BME280;41334;47.872;16.384;2023-05-07T09:42:23;99292.84;;;19.68;53.32
55470;BME280;41334;47.872;16.384;2023-05-07T09:47:30;99297.66;;;20.02;50.87
55470;BME280;41334;47.872;16.384;2023-05-07T09:52:35;99300.56;;;19.90;49.72
55470;BME280;41334;47.872;16.384;2023-05-07T09:57:40;99288.31;;;19.47;54.25
55470;BME280;41334;47.872;16.384;2023-05-07T10:02:46;99284.44;;;19.20;52.33
55470;BME280;41334;47.872;16.384;2023-05-07T10:07:53;99289.88;;;19.29;53.43
55470;BME280;41334;47.872;16.384;2023-05-07T10:12:56;99277.56;;;18.18;54.38
55470;BME280;41334;47.872;16.384;2023-05-07T10:18:06;99278.69;;;18.85;54.51
55470;BME280;41334;47.872;16.384;2023-05-07T10:23:13;99274.53;;;18.79;54.77
55470;BME280;41334;47.872;16.384;2023-05-07T10:28:19;99268.81;;;19.67;53.10
55470;BME280;41334;47.872;16.384;2023-05-07T10:33:27;99276.56;;;19.73;54.14
55470;BME280;41334;47.872;16.384;2023-05-07T10:38:31;99271.78;;;19.26;52.79
55470;BME280;41334;47.872;16.384;2023-05-07T10:43:45;99270.16;;;20.27;50.95
55470;BME280;41334;47.872;16.384;2023-05-07T11:04:32;99261.41;;;20.48;51.20
55470;BME280;41334;47.872;16.384;2023-05-07T11:10:00;99267.69;;;19.87;50.66
55470;BME280;41334;47.872;16.384;2023-05-07T11:15:37;99268.19;;;20.47;48.99
55470;BME280;41334;47.872;16.384;2023-05-07T11:20:57;99260.25;;;20.33;50.83
55470;BME280;41334;47.872;16.384;2023-05-07T11:26:13;99250.00;;;20.41;49.61
55470;BME280;41334;47.872;16.384;2023-05-07T11:31:24;99253.56;;;20.57;48.78
55470;BME280;41334;47.872;16.384;2023-05-07T11:36:31;99258.38;;;21.22;47.93
55470;BME280;41334;47.872;16.384;2023-05-07T11:41:36;99253.81;;;22.13;45.45
55470;BME280;41334;47.872;16.384;2023-05-07T11:46:43;99258.69;;;21.89;43.76
55470;BME280;41334;47.872;16.384;2023-05-07T11:51:45;99249.47;;;22.53;44.25
55470;BME280;41334;47.872;16.384;2023-05-07T11:56:50;99251.41;;;21.35;48.13
55470;BME280;41334;47.872;16.384;2023-05-07T12:01:51;99245.13;;;21.45;46.37
55470;BME280;41334;47.872;16.384;2023-05-07T12:06:54;99249.03;;;21.37;45.79
55470;BME280;41334;47.872;16.384;2023-05-07T12:11:57;99249.69;;;20.85;48.22
55470;BME280;41334;47.872;16.384;2023-05-07T12:17:04;99255.47;;;21.15;47.53
55470;BME280;41334;47.872;16.384;2023-05-07T12:22:08;99254.00;;;21.25;46.79
55470;BME280;41334;47.872;16.384;2023-05-07T12:27:10;99250.66;;;21.15;48.78
55470;BME280;41334;47.872;16.384;2023-05-07T12:32:16;99260.50;;;20.83;48.22
55470;BME280;41334;47.872;16.384;2023-05-07T12:37:25;99249.06;;;20.95;48.04
55470;BME280;41334;47.872;16.384;2023-05-07T12:42:36;99256.72;;;20.75;47.58
55470;BME280;41334;47.872;16.384;2023-05-07T12:47:38;99239.09;;;21.21;47.76
55470;BME280;41334;47.872;16.384;2023-05-07T12:52:40;99225.91;;;21.25;46.49
55470;BME280;41334;47.872;16.384;2023-05-07T12:57:45;99230.34;;;20.80;46.79
55470;BME280;41334;47.872;16.384;2023-05-07T13:02:49;99229.84;;;20.97;47.95
55470;BME280;41334;47.872;16.384;2023-05-07T13:07:55;99233.03;;;20.73;47.07
55470;BME280;41334;47.872;16.384;2023-05-07T13:12:57;99226.25;;;20.15;47.88
55470;BME280;41334;47.872;16.384;2023-05-07T13:18:00;99219.06;;;20.37;48.11
55470;BME280;41334;47.872;16.384;2023-05-07T13:23:02;99226.91;;;20.48;49.47
55470;BME280;41334;47.872;16.384;2023-05-07T13:28:05;99216.69;;;20.78;47.47
55470;BME280;41334;47.872;16.384;2023-05-07T13:33:12;99209.50;;;21.04;46.44
55470;BME280;41334;47.872;16.384;2023-05-07T13:38:14;99213.75;;;21.40;43.99
55470;BME280;41334;47.872;16.384;2023-05-07T13:43:17;99214.09;;;20.70;46.78
55470;BME280;41334;47.872;16.384;2023-05-07T13:48:20;99215.72;;;20.71;47.83
55470;BME280;41334;47.872;16.384;2023-05-07T13:53:22;99224.91;;;20.90;46.56
55470;BME280;41334;47.872;16.384;2023-05-07T13:58:24;99213.75;;;20.94;47.11
55470;BME280;41334;47.872;16.384;2023-05-07T14:03:26;99207.31;;;21.16;45.42
55470;BME280;41334;47.872;16.384;2023-05-07T14:08:30;99217.06;;;21.00;45.71
55470;BME280;41334;47.872;16.384;2023-05-07T14:13:32;99220.09;;;20.29;48.52
55470;BME280;41334;47.872;16.384;2023-05-07T14:18:36;99221.88;;;20.18;48.12
55470;BME280;41334;47.872;16.384;2023-05-07T14:23:38;99217.91;;;20.19;49.03
55470;BME280;41334;47.872;16.384;2023-05-07T14:28:40;99216.63;;;20.36;47.51
55470;BME280;41334;47.872;16.384;2023-05-07T14:33:47;99210.66;;;20.37;48.41
55470;BME280;41334;47.872;16.384;2023-05-07T14:38:52;99225.56;;;20.61;47.65
55470;BME280;41334;47.872;16.384;2023-05-07T14:43:57;99223.56;;;20.42;46.53
55470;BME280;41334;47.872;16.384;2023-05-07T14:49:02;99219.94;;;20.61;45.24
55470;BME280;41334;47.872;16.384;2023-05-07T14:54:04;99217.69;;;20.47;47.18
55470;BME280;41334;47.872;16.384;2023-05-07T14:59:06;99204.22;;;20.37;48.02
55470;BME280;41334;47.872;16.384;2023-05-07T15:04:08;99211.91;;;20.59;46.82
55470;BME280;41334;47.872;16.384;2023-05-07T15:09:10;99220.50;;;20.08;45.69
55470;BME280;41334;47.872;16.384;2023-05-07T15:14:12;99228.94;;;20.70;45.61
55470;BME280;41334;47.872;16.384;2023-05-07T15:19:14;99227.63;;;20.06;46.66
55470;BME280;41334;47.872;16.384;2023-05-07T15:24:17;99233.09;;;19.63;46.59
55470;BME280;41334;47.872;16.384;2023-05-07T15:29:19;99238.88;;;19.55;47.43
55470;BME280;41334;47.872;16.384;2023-05-07T15:34:22;99240.84;;;19.54;47.44
55470;BME280;41334;47.872;16.384;2023-05-07T15:39:25;99243.09;;;19.80;48.90
55470;BME280;41334;47.872;16.384;2023-05-07T15:44:27;99242.94;;;19.73;47.76
55470;BME280;41334;47.872;16.384;2023-05-07T15:49:30;99242.41;;;19.04;49.34
55470;BME280;41334;47.872;16.384;2023-05-07T15:54:31;99250.81;;;19.04;49.24
55470;BME280;41334;47.872;16.384;2023-05-07T15:59:33;99248.53;;;18.78;49.61
55470;BME280;41334;47.872;16.384;2023-05-07T16:04:36;99248.09;;;18.76;50.24
55470;BME280;41334;47.872;16.384;2023-05-07T16:09:38;99249.19;;;18.59;50.71
55470;BME280;41334;47.872;16.384;2023-05-07T16:14:40;99250.38;;;18.30;51.42
55470;BME280;41334;47.872;16.384;2023-05-07T16:19:42;99258.13;;;18.09;50.35
55470;BME280;41334;47.872;16.384;2023-05-07T16:24:44;99261.22;;;18.20;50.77
55470;BME280;41334;47.872;16.384;2023-05-07T16:29:46;99252.94;;;17.71;52.91
55470;BME280;41334;47.872;16.384;2023-05-07T16:34:49;99257.16;;;17.77;52.07
55470;BME280;41334;47.872;16.384;2023-05-07T16:39:52;99265.63;;;17.56;52.73
55470;BME280;41334;47.872;16.384;2023-05-07T16:44:54;99264.84;;;17.31;52.32
55470;BME280;41334;47.872;16.384;2023-05-07T16:49:56;99259.75;;;16.75;53.91
55470;BME280;41334;47.872;16.384;2023-05-07T16:54:59;99272.78;;;16.84;53.81
55470;BME280;41334;47.872;16.384;2023-05-07T17:00:02;99268.63;;;16.57;54.88
55470;BME280;41334;47.872;16.384;2023-05-07T17:05:08;99286.09;;;16.24;54.24
55470;BME280;41334;47.872;16.384;2023-05-07T17:10:10;99286.19;;;15.94;54.74
55470;BME280;41334;47.872;16.384;2023-05-07T17:15:11;99297.16;;;15.70;56.41
55470;BME280;41334;47.872;16.384;2023-05-07T17:20:14;99305.59;;;15.44;56.42
55470;BME280;41334;47.872;16.384;2023-05-07T17:25:16;99305.25;;;15.16;56.26
55470;BME280;41334;47.872;16.384;2023-05-07T17:30:18;99312.31;;;15.05;56.14
55470;BME280;41334;47.872;16.384;2023-05-07T17:35:20;99318.28;;;14.77;57.22
55470;BME280;41334;47.872;16.384;2023-05-07T17:40:22;99321.41;;;14.58;58.58
55470;BME280;41334;47.872;16.384;2023-05-07T17:45:24;99333.50;;;14.28;57.88
55470;BME280;41334;47.872;16.384;2023-05-07T17:50:25;99334.63;;;14.18;56.82
55470;BME280;41334;47.872;16.384;2023-05-07T17:55:30;99360.72;;;13.91;57.63
55470;BME280;41334;47.872;16.384;2023-05-07T18:00:34;99371.13;;;13.77;58.81
55470;BME280;41334;47.872;16.384;2023-05-07T18:05:36;99386.53;;;13.52;59.33
55470;BME280;41334;47.872;16.384;2023-05-07T18:10:40;99387.63;;;13.42;60.47
55470;BME280;41334;47.872;16.384;2023-05-07T18:15:44;99407.84;;;13.11;61.60
55470;BME280;41334;47.872;16.384;2023-05-07T18:20:49;99415.75;;;12.96;61.35
55470;BME280;41334;47.872;16.384;2023-05-07T18:25:52;99421.59;;;12.72;61.41
55470;BME280;41334;47.872;16.384;2023-05-07T18:30:53;99427.28;;;12.30;63.44
55470;BME280;41334;47.872;16.384;2023-05-07T18:35:55;99435.25;;;12.18;63.40
55470;BME280;41334;47.872;16.384;2023-05-07T18:41:02;99438.06;;;12.04;64.04
55470;BME280;41334;47.872;16.384;2023-05-07T18:46:04;99445.88;;;11.89;62.89
55470;BME280;41334;47.872;16.384;2023-05-07T18:51:09;99451.44;;;11.70;63.09
55470;BME280;41334;47.872;16.384;2023-05-07T18:56:13;99473.59;;;11.56;63.22
55470;BME280;41334;47.872;16.384;2023-05-07T19:01:15;99481.66;;;11.52;63.43
55470;BME280;41334;47.872;16.384;2023-05-07T19:06:17;99500.13;;;11.24;65.29
55470;BME280;41334;47.872;16.384;2023-05-07T19:11:19;99502.31;;;11.09;64.86
55470;BME280;41334;47.872;16.384;2023-05-07T19:16:21;99502.72;;;10.83;64.68
55470;BME280;41334;47.872;16.384;2023-05-07T19:21:23;99512.78;;;10.74;66.21
55470;BME280;41334;47.872;16.384;2023-05-07T19:26:25;99515.81;;;10.54;67.07
55470;BME280;41334;47.872;16.384;2023-05-07T19:31:27;99522.47;;;10.34;67.72
55470;BME280;41334;47.872;16.384;2023-05-07T19:36:30;99518.50;;;10.16;67.98
55470;BME280;41334;47.872;16.384;2023-05-07T19:41:34;99522.69;;;10.13;68.50
55470;BME280;41334;47.872;16.384;2023-05-07T19:46:36;99534.66;;;10.04;68.43
55470;BME280;41334;47.872;16.384;2023-05-07T19:51:41;99538.94;;;10.15;67.23
55470;BME280;41334;47.872;16.384;2023-05-07T19:56:42;99547.50;;;9.89;66.42
55470;BME280;41334;47.872;16.384;2023-05-07T20:01:44;99549.13;;;9.90;66.36
55470;BME280;41334;47.872;16.384;2023-05-07T20:06:46;99561.22;;;9.70;67.85
55470;BME280;41334;47.872;16.384;2023-05-07T20:11:48;99562.06;;;9.66;67.42
55470;BME280;41334;47.872;16.384;2023-05-07T20:16:50;99575.22;;;9.45;68.32
55470;BME280;41334;47.872;16.384;2023-05-07T20:21:52;99581.00;;;9.49;67.71
55470;BME280;41334;47.872;16.384;2023-05-07T20:26:53;99571.09;;;9.42;68.21
55470;BME280;41334;47.872;16.384;2023-05-07T20:31:55;99583.81;;;9.38;68.03
55470;BME280;41334;47.872;16.384;2023-05-07T20:36:58;99592.41;;;9.32;68.07
55470;BME280;41334;47.872;16.384;2023-05-07T20:42:00;99610.94;;;9.21;68.59
55470;BME280;41334;47.872;16.384;2023-05-07T20:47:02;99615.16;;;9.08;68.88
55470;BME280;41334;47.872;16.384;2023-05-07T20:52:04;99616.59;;;9.01;70.20
55470;BME280;41334;47.872;16.384;2023-05-07T20:57:06;99627.56;;;9.11;69.14
55470;BME280;41334;47.872;16.384;2023-05-07T21:02:08;99630.22;;;9.21;68.81
55470;BME280;41334;47.872;16.384;2023-05-07T21:07:10;99641.38;;;9.06;69.62
55470;BME280;41334;47.872;16.384;2023-05-07T21:12:12;99627.03;;;9.04;69.96
55470;BME280;41334;47.872;16.384;2023-05-07T21:17:14;99633.94;;;9.06;69.28
55470;BME280;41334;47.872;16.384;2023-05-07T21:22:16;99634.06;;;8.81;70.40
55470;BME280;41334;47.872;16.384;2023-05-07T21:27:17;99631.00;;;8.82;69.35
55470;BME280;41334;47.872;16.384;2023-05-07T21:32:19;99649.22;;;8.68;70.12
55470;BME280;41334;47.872;16.384;2023-05-07T21:37:21;99655.34;;;8.60;70.12
55470;BME280;41334;47.872;16.384;2023-05-07T21:42:24;99649.81;;;8.65;68.90
55470;BME280;41334;47.872;16.384;2023-05-07T21:47:26;99652.91;;;8.43;70.21
55470;BME280;41334;47.872;16.384;2023-05-07T21:52:28;99633.66;;;8.28;70.69
55470;BME280;41334;47.872;16.384;2023-05-07T21:57:29;99642.47;;;8.40;70.25
55470;BME280;41334;47.872;16.384;2023-05-07T22:02:32;99647.16;;;8.24;70.69
55470;BME280;41334;47.872;16.384;2023-05-07T22:07:34;99651.81;;;8.24;70.57
55470;BME280;41334;47.872;16.384;2023-05-07T22:12:36;99666.16;;;8.10;70.98
55470;BME280;41334;47.872;16.384;2023-05-07T22:17:38;99665.34;;;8.15;70.76
55470;BME280;41334;47.872;16.384;2023-05-07T22:22:55;99663.13;;;8.07;71.22
55470;BME280;41334;47.872;16.384;2023-05-07T22:27:57;99663.72;;;7.94;71.55
55470;BME280;41334;47.872;16.384;2023-05-07T22:32:59;99657.13;;;7.90;71.52
55470;BME280;41334;47.872;16.384;2023-05-07T22:38:01;99648.88;;;7.84;71.28
55470;BME280;41334;47.872;16.384;2023-05-07T22:43:03;99659.03;;;7.84;71.60
55470;BME280;41334;47.872;16.384;2023-05-07T22:48:05;99665.66;;;7.83;70.54
55470;BME280;41334;47.872;16.384;2023-05-07T22:53:07;99674.97;;;7.72;71.27
55470;BME280;41334;47.872;16.384;2023-05-07T22:58:09;99668.09;;;7.64;71.52
55470;BME280;41334;47.872;16.384;2023-05-07T23:03:10;99666.19;;;7.65;71.21
55470;BME280;41334;47.872;16.384;2023-05-07T23:08:12;99665.91;;;7.71;70.53
55470;BME280;41334;47.872;16.384;2023-05-07T23:13:14;99675.81;;;7.62;71.33
55470;BME280;41334;47.872;16.384;2023-05-07T23:18:18;99675.53;;;7.53;71.75
55470;BME280;41334;47.872;16.384;2023-05-07T23:23:22;99682.66;;;7.59;71.62
55470;BME280;41334;47.872;16.384;2023-05-07T23:28:24;99671.13;;;7.52;72.21
55470;BME280;41334;47.872;16.384;2023-05-07T23:33:25;99669.72;;;7.50;72.42
55470;BME280;41334;47.872;16.384;2023-05-07T23:38:28;99663.41;;;7.54;73.29
55470;BME280;41334;47.872;16.384;2023-05-07T23:43:29;99655.47;;;7.63;72.74
55470;BME280;41334;47.872;16.384;2023-05-07T23:48:31;99654.66;;;7.78;71.94
55470;BME280;41334;47.872;16.384;2023-05-07T23:53:33;99657.94;;;7.80;72.91
55470;BME280;41334;47.872;16.384;2023-05-07T23:58:35;99648.03;;;7.79;72.81
